Historyczne dane pomiarowe

Dodano dane terminowe – wersja testowa.

Dane z okresu 1951-2019

Wersja bazy: 1.34 [2019-03-16, lista zmian], aktualizacja planowana na 2019-04-15

Dane meteo z obszaru Polski uzyskane na podstawie danych udostępnionych przez Instytut Meteorologii i Gospodarki Wodnej – Państwowy Instytut Badawczy.

 

Wybierz Datę:    

       

TemperaturaWilgotnośćWiatrCiśnienieOpadyŚniegCzas trwania zjawisk
 Stacja t tx tn tng RH VA  wxwx mslp ppp RRR   cm mm wxwxwxwxwxwxwx
1987-08-14 12.6 16.6 7.7 1.5 81.5- 3.7 1.7---- 7.0------------
1987-08-13 11.4 18.1 7.1 2.0 86.0- 4.7 0.0---- 0.1------------
1987-08-12 10.8 17.3 5.2 -0.5 87.8- 5.3 0.0---- 4.0------------
1987-08-11 11.8 17.0 7.8 2.0 80.5- 2.3 1.0---- 0.0------------
1987-08-10 13.2 16.6 10.5 2.3 88.3- 6.7 1.0---- 2.9------------
1987-08-09 13.9 21.5 7.9 2.0 84.0- 1.3 0.7---- 5.0------------
1987-08-08 11.9 19.5 4.3 -0.5 84.8- 2.0 0.7---- 0.0------------
1987-08-07 8.0 12.6 3.5 -2.0 95.5- 5.3 0.0---- 5.9------------
1987-08-06 9.3 12.6 7.8 3.9 79.8- 6.0 1.3---- 2.3------------
1987-08-05 10.0 15.3 5.6 1.0 79.8- 2.7 0.7---- 1.0------------
1987-08-04 14.7 17.0 13.9 10.8 73.0- 7.3 2.3---- 0.6------------
1987-08-03 13.5 18.7 8.8 3.9 80.0- 4.3 2.0---- 1.6------------
1987-08-02 12.5 16.7 9.5 5.9 85.5- 7.3 1.0---- 4.7------------
1987-08-01 13.5 17.1 10.3 6.9 88.3- 7.7 1.3---- 5.6------------
1987-07-31 13.6 20.1 12.6 11.8 92.8- 7.3 0.7---- 0.7------------
1987-07-30 15.8 22.6 7.8 2.0 77.3- 2.3 0.7---- 7.8------------
1987-07-29 13.1 17.3 8.6 3.9 77.0- 5.3 1.0---- 0.0------------
1987-07-28 11.6 13.6 10.3 5.9 82.5- 7.0 1.0---- 2.5------------
1987-07-27 10.7 15.1 7.0 1.5 72.5- 7.3 4.0---- 4.9------------
1987-07-26 11.8 16.7 9.6 6.9 83.0- 7.3 0.7---- 3.6------------
1987-07-25 16.8 22.2 13.2 9.3 82.8- 4.7 1.3---- 0.9------------
1987-07-24 17.4 24.1 13.0 7.8 84.3- 3.0 0.7---- 0.3------------
1987-07-23 17.9 25.1 11.2 5.4 82.8- 3.0 0.0---- 0.0------------
1987-07-22 17.5 24.3 10.9 5.9 76.3- 0.3 1.0---- 0.0------------
1987-07-21 15.0 20.6 10.0 5.4 91.3- 7.7 0.7---- 0.3------------
1987-07-20 17.1 22.3 14.0 13.2 82.8- 4.7 0.7---- 0.0------------
1987-07-19 17.7 21.1 16.4 13.7 88.0- 8.0 1.3---- 11.8------------
1987-07-18 20.5 25.0 14.3 9.3 83.8- 3.7 2.0---- 0.3------------
1987-07-17 22.1 27.7 17.1 12.3 72.8- 3.3 1.7---- 0.1------------
1987-07-16 19.9 26.9 13.1 7.4 81.5- 1.3 0.0---- 0.0------------
1987-07-15 16.5 23.4 7.3 2.0 74.8- 0.0 0.7---- 0.0------------
1987-07-14 14.8 20.3 7.6 2.5 73.8- 0.0 0.7---- 0.0------------
1987-07-13 16.2 21.5 12.4 10.3 81.0- 3.7 1.0---- 0.0------------
1987-07-12 19.5 26.6 15.1 10.3 68.0- 3.7 3.0---- 8.7------------
1987-07-11 16.3 23.3 6.8 2.5 68.8- 3.3 4.0---- 0.0------------
1987-07-10 13.5 19.0 7.0 0.5 75.5- 2.7 1.3---- 0.0------------
1987-07-09 14.6 22.1 13.4 13.7 98.3- 7.0 0.0---- 9.6------------
1987-07-08 21.0 24.7 13.7 8.3 62.8- 5.3 2.0---- 22.0------------
1987-07-07 18.1 25.1 8.8 4.9 67.5- 0.0 1.7---- 0.0------------
1987-07-06 15.8 22.6 7.7 2.9 73.5- 0.0 1.3---- 0.0------------
1987-07-05 14.6 18.5 9.1 3.9 70.5- 3.0 1.7---- 0.0------------
1987-07-04 15.5 19.8 10.2 5.9 80.0- 4.0 1.0---- 0.0------------
1987-07-03 16.7 21.9 10.6 7.4 75.8- 1.3 1.0---- 0.0------------
1987-07-02 16.4 20.0 13.6 13.2 88.3- 5.3 1.3---- 0.0------------
1987-07-01 22.9 29.5 17.1 13.2 77.8- 4.0 1.3---- 20.5------------
1987-06-30 22.2 28.5 14.6 10.7 76.0- 0.0 1.3---- 0.0------------
1987-06-29 20.8 26.0 16.4 12.7 75.0- 3.0 0.7---- 0.0------------
1987-06-28 17.4 23.5 10.5 5.4 77.5- 4.7 0.7---- 0.0------------
1987-06-27 15.0 18.9 13.1 9.3 93.0- 7.0 0.0---- 6.8------------
1987-06-26 15.0 22.3 7.2 2.5 78.5- 4.0 1.7---- 4.1------------
1987-06-25 12.8 16.1 11.1 8.3 77.3- 5.3 1.7---- 0.0------------
1987-06-24 13.9 19.4 9.6 4.9 79.8- 4.7 1.0---- 5.6------------
1987-06-23 13.4 17.6 9.8 6.9 82.3- 4.7 1.0---- 0.0------------
1987-06-22 11.5 14.2 10.6 10.4 93.0- 8.0 0.7---- 2.0------------
1987-06-21 14.8 19.7 11.3 9.8 84.3- 7.7 0.7---- 12.1------------
1987-06-20 14.7 19.7 9.4 5.4 70.8- 4.3 1.7---- 0.2------------
1987-06-19 10.7 15.8 6.0 3.4 71.3- 7.0 2.0---- 0.0------------
1987-06-18 8.1 12.3 6.8 2.5 87.0- 8.0 1.0---- 10.0------------
1987-06-17 9.9 14.9 6.1 2.0 72.3- 6.7 1.0---- 0.0------------
1987-06-16 10.8 19.1 8.3 9.3 83.0- 8.0 2.0---- 5.9------------
592.6 ms

 

Źródłem pochodzenia danych jest Instytut Meteorologii i Gospodarki Wodnej – Państwowy Instytut Badawczy. Dane Instytutu Meteorologii i Gospodarki Wodnej – Państwowego Instytutu Badawczego zostały przetworzone.

Dane źródłowe można odnaleźć na stronie https://dane.imgw.pl